createdAt,value
2023-12-29T00:00:42.919Z,11.27
2023-12-29T00:03:33.432Z,10.20
2023-12-29T00:06:04.043Z,10.63
2023-12-29T00:08:32.931Z,9.77
2023-12-29T00:11:03.693Z,11.25
2023-12-29T00:13:31.811Z,10.15
2023-12-29T00:15:59.872Z,11.00
2023-12-29T00:18:28.155Z,12.63
2023-12-29T00:21:06.348Z,9.68
2023-12-29T00:23:36.464Z,10.65
2023-12-29T00:26:05.033Z,11.93
2023-12-29T00:28:34.043Z,11.18
2023-12-29T00:31:03.591Z,9.60
2023-12-29T00:33:33.337Z,10.32
2023-12-29T00:36:03.170Z,8.68
2023-12-29T00:38:31.913Z,10.70
2023-12-29T00:41:02.332Z,11.85
2023-12-29T00:43:30.404Z,10.68
2023-12-29T00:45:58.277Z,7.68
2023-12-29T00:48:26.902Z,10.68
2023-12-29T00:50:54.592Z,10.07
2023-12-29T00:53:27.468Z,11.80
2023-12-29T00:55:55.208Z,10.13
2023-12-29T00:58:23.416Z,8.68
2023-12-29T01:00:51.461Z,10.45
2023-12-29T01:03:21.042Z,9.45
2023-12-29T01:05:50.941Z,8.20
2023-12-29T01:08:19.308Z,10.40
2023-12-29T01:10:48.576Z,6.45
2023-12-29T01:13:16.715Z,7.50
2023-12-29T01:15:44.514Z,8.07
2023-12-29T01:18:13.029Z,7.10
2023-12-29T01:20:41.009Z,7.75
2023-12-29T01:23:09.404Z,9.30
2023-12-29T01:25:37.069Z,7.00
2023-12-29T01:28:07.335Z,7.70
2023-12-29T01:30:34.992Z,7.00
2023-12-29T01:33:03.779Z,6.55
2023-12-29T01:35:31.458Z,7.05
2023-12-29T01:37:59.927Z,5.93
2023-12-29T01:40:27.894Z,6.88
2023-12-29T01:42:55.972Z,5.10
2023-12-29T01:45:25.809Z,7.13
2023-12-29T01:47:54.638Z,7.53
2023-12-29T01:50:23.440Z,7.13
2023-12-29T01:52:53.821Z,7.80
2023-12-29T01:55:22.859Z,5.55
2023-12-29T01:57:52.302Z,7.47
2023-12-29T02:00:20.591Z,7.13
2023-12-29T02:02:51.173Z,6.68
2023-12-29T02:05:21.875Z,7.03
2023-12-29T02:07:53.023Z,5.93
2023-12-29T02:10:21.156Z,6.70
2023-12-29T02:12:49.431Z,7.55
2023-12-29T02:15:18.134Z,6.47
2023-12-29T02:17:49.026Z,7.18
2023-12-29T02:20:18.688Z,6.07
2023-12-29T02:22:46.905Z,8.35
2023-12-29T02:25:17.124Z,5.05
2023-12-29T02:27:53.188Z,5.50
2023-12-29T02:30:25.055Z,6.53
2023-12-29T02:32:56.760Z,6.20
2023-12-29T02:35:28.225Z,6.45
2023-12-29T02:37:58.083Z,5.93
2023-12-29T02:40:27.807Z,4.97
2023-12-29T02:42:56.353Z,6.75
2023-12-29T02:45:24.216Z,5.32
2023-12-29T02:47:52.817Z,5.40
2023-12-29T02:50:21.231Z,7.38
2023-12-29T02:52:52.242Z,5.75
2023-12-29T02:55:20.775Z,5.28
2023-12-29T02:57:51.059Z,5.88
2023-12-29T03:00:19.637Z,6.28
2023-12-29T03:02:47.874Z,4.90
2023-12-29T03:05:15.957Z,6.05
2023-12-29T03:07:44.207Z,7.47
2023-12-29T03:10:12.195Z,5.50
2023-12-29T03:12:40.426Z,5.32
2023-12-29T03:15:10.368Z,7.30
2023-12-29T03:17:39.197Z,5.38
2023-12-29T03:20:08.489Z,6.85
2023-12-29T03:22:37.097Z,4.95
2023-12-29T03:25:05.481Z,5.60
2023-12-29T03:27:34.081Z,6.10
2023-12-29T03:30:01.924Z,5.20
2023-12-29T03:32:32.000Z,4.85
2023-12-29T03:34:59.649Z,6.55
2023-12-29T03:37:28.109Z,6.28
2023-12-29T03:39:56.169Z,5.82
2023-12-29T03:42:24.858Z,5.93
2023-12-29T03:44:55.501Z,5.85
2023-12-29T03:47:23.662Z,6.53
2023-12-29T03:49:52.770Z,6.43
2023-12-29T03:52:22.446Z,5.57
2023-12-29T03:54:50.683Z,6.00
2023-12-29T03:57:20.211Z,7.15
2023-12-29T03:59:48.201Z,5.53
2023-12-29T04:02:17.727Z,4.72
2023-12-29T04:04:45.512Z,6.45
2023-12-29T04:07:15.639Z,6.20
2023-12-29T04:09:43.518Z,5.13
2023-12-29T04:12:11.644Z,7.63
2023-12-29T04:14:39.396Z,5.57
2023-12-29T04:17:07.781Z,6.70
2023-12-29T04:19:35.897Z,7.22
2023-12-29T04:22:04.283Z,5.72
2023-12-29T04:24:33.416Z,7.05
2023-12-29T04:27:01.783Z,7.05
2023-12-29T04:29:29.486Z,7.15
2023-12-29T04:31:57.757Z,6.28
2023-12-29T04:34:25.511Z,8.57
2023-12-29T04:36:53.705Z,6.32
2023-12-29T04:39:21.605Z,5.95
2023-12-29T04:41:51.539Z,6.03
2023-12-29T04:44:19.390Z,7.28
2023-12-29T04:46:47.626Z,8.13
2023-12-29T04:49:15.546Z,6.43
2023-12-29T04:51:43.649Z,7.07
2023-12-29T04:54:13.147Z,6.85
2023-12-29T04:56:41.329Z,8.98
2023-12-29T04:59:10.234Z,7.75
2023-12-29T05:01:38.460Z,6.78
2023-12-29T05:04:06.791Z,7.28
2023-12-29T05:06:38.813Z,7.10
2023-12-29T05:09:06.623Z,6.40
2023-12-29T05:11:34.887Z,8.27
2023-12-29T05:14:02.651Z,6.43
2023-12-29T05:16:32.484Z,6.35
2023-12-29T05:19:00.249Z,6.10
2023-12-29T05:21:28.380Z,4.82
2023-12-29T05:23:56.040Z,8.48
2023-12-29T05:26:24.030Z,7.22
2023-12-29T05:28:51.811Z,4.60
2023-12-29T05:31:20.001Z,5.50
2023-12-29T05:33:49.388Z,5.07
2023-12-29T05:36:17.522Z,6.75
2023-12-29T05:38:47.058Z,5.30
2023-12-29T05:41:15.668Z,5.65
2023-12-29T05:43:43.530Z,5.53
2023-12-29T05:46:11.925Z,4.90
2023-12-29T05:48:39.901Z,6.20
2023-12-29T05:51:11.654Z,8.90
2023-12-29T05:53:41.540Z,8.52
2023-12-29T05:56:13.333Z,7.47
2023-12-29T05:58:41.980Z,8.13
2023-12-29T06:01:10.435Z,9.07
2023-12-29T06:03:38.270Z,6.40
2023-12-29T06:06:07.284Z,6.85
2023-12-29T06:08:36.282Z,8.82
2023-12-29T06:11:04.690Z,8.82
2023-12-29T06:13:32.259Z,5.65
2023-12-29T06:16:00.468Z,9.73
2023-12-29T06:18:30.049Z,7.80
2023-12-29T06:20:59.584Z,7.35
2023-12-29T06:23:29.961Z,9.27
2023-12-29T06:25:59.697Z,6.93
2023-12-29T06:28:29.596Z,5.10
2023-12-29T06:31:03.205Z,4.63
2023-12-29T06:33:32.315Z,3.97
2023-12-29T06:36:00.433Z,4.18
2023-12-29T06:38:28.003Z,4.72
2023-12-29T06:40:56.123Z,6.03
2023-12-29T06:43:25.161Z,5.32
2023-12-29T06:45:53.494Z,4.90
2023-12-29T06:48:21.741Z,4.97
2023-12-29T06:50:49.912Z,5.28
2023-12-29T06:53:17.493Z,3.95
2023-12-29T06:55:46.197Z,4.97
2023-12-29T06:58:13.730Z,4.82
2023-12-29T07:00:44.515Z,5.70
2023-12-29T07:03:14.584Z,5.95
2023-12-29T07:05:43.181Z,5.22
2023-12-29T07:08:14.657Z,4.93
2023-12-29T07:10:43.325Z,5.07
2023-12-29T07:13:11.187Z,3.75
2023-12-29T07:15:43.817Z,4.10
2023-12-29T07:18:12.453Z,4.35
2023-12-29T07:20:43.167Z,4.90
2023-12-29T07:23:11.298Z,4.20
2023-12-29T07:25:39.605Z,5.32
2023-12-29T07:28:07.380Z,4.85
2023-12-29T07:30:35.644Z,3.30
2023-12-29T07:33:05.177Z,4.55
2023-12-29T07:35:33.831Z,3.85
2023-12-29T07:38:01.613Z,4.82
2023-12-29T07:40:29.829Z,5.65
2023-12-29T07:42:57.543Z,3.47
2023-12-29T07:45:26.176Z,3.72
2023-12-29T07:47:54.319Z,7.03
2023-12-29T07:50:23.992Z,5.82
2023-12-29T07:52:52.050Z,5.60
2023-12-29T07:55:20.309Z,7.75
2023-12-29T07:57:48.603Z,10.77
2023-12-29T08:00:17.764Z,9.38
2023-12-29T08:02:46.160Z,6.68
2023-12-29T08:05:15.363Z,7.95
2023-12-29T08:07:45.281Z,6.05
2023-12-29T08:10:14.462Z,4.93
2023-12-29T08:12:42.998Z,4.90
2023-12-29T08:15:12.797Z,5.20
2023-12-29T08:17:40.586Z,4.75
2023-12-29T08:20:12.191Z,4.20
2023-12-29T08:22:40.303Z,5.22
2023-12-29T08:25:11.026Z,4.15
2023-12-29T08:27:38.879Z,4.35
2023-12-29T08:30:08.420Z,4.20
2023-12-29T08:32:36.948Z,4.00
2023-12-29T08:35:06.144Z,3.60
2023-12-29T08:37:34.419Z,4.75
2023-12-29T08:40:02.914Z,4.45
2023-12-29T08:42:32.464Z,3.42
2023-12-29T08:45:01.248Z,3.70
2023-12-29T08:47:29.260Z,4.13
2023-12-29T08:49:58.031Z,3.92
2023-12-29T08:52:26.099Z,4.70
2023-12-29T08:54:54.739Z,3.90
2023-12-29T08:57:22.907Z,5.88
2023-12-29T08:59:52.810Z,6.03
2023-12-29T09:02:23.053Z,4.15
2023-12-29T09:04:51.954Z,4.93
2023-12-29T09:07:20.015Z,3.50
2023-12-29T09:09:51.420Z,3.83
2023-12-29T09:12:19.473Z,3.35
2023-12-29T09:14:48.160Z,3.70
2023-12-29T09:17:18.120Z,3.17
2023-12-29T09:19:51.451Z,3.20
2023-12-29T09:22:24.514Z,3.17
2023-12-29T09:24:55.792Z,3.10
2023-12-29T09:27:24.232Z,2.88
2023-12-29T09:29:53.785Z,4.05
2023-12-29T09:32:23.521Z,4.07
2023-12-29T09:34:51.775Z,4.60
2023-12-29T09:37:19.855Z,2.53
2023-12-29T09:39:48.339Z,3.65
2023-12-29T09:42:23.197Z,4.57
2023-12-29T09:44:53.516Z,3.35
2023-12-29T09:47:24.792Z,3.58
2023-12-29T09:49:55.806Z,3.45
2023-12-29T09:52:24.637Z,2.70
2023-12-29T09:54:54.086Z,5.05
2023-12-29T09:57:22.389Z,3.67
2023-12-29T09:59:52.405Z,3.03
2023-12-29T10:02:23.091Z,2.95
2023-12-29T10:04:51.859Z,2.78
2023-12-29T10:07:30.328Z,3.78
2023-12-29T10:10:00.379Z,3.63
2023-12-29T10:12:30.154Z,4.35
2023-12-29T10:15:06.978Z,2.47
2023-12-29T10:17:50.880Z,5.88
2023-12-29T10:20:33.351Z,3.50
2023-12-29T10:23:10.376Z,2.28
2023-12-29T10:25:39.583Z,3.33
2023-12-29T10:28:08.640Z,3.95
2023-12-29T10:30:37.963Z,3.67
2023-12-29T10:33:08.184Z,3.00
2023-12-29T10:35:37.600Z,2.90
2023-12-29T10:38:15.065Z,4.75
2023-12-29T10:40:44.640Z,2.90
2023-12-29T10:43:13.002Z,3.33
2023-12-29T10:45:42.024Z,4.38
2023-12-29T10:48:11.872Z,4.43
2023-12-29T10:50:47.101Z,3.05
2023-12-29T10:53:18.756Z,2.67
2023-12-29T10:55:47.919Z,4.07
2023-12-29T10:58:18.056Z,3.80
2023-12-29T11:00:46.967Z,2.65
2023-12-29T11:03:17.921Z,3.85
2023-12-29T11:05:48.107Z,4.45
2023-12-29T11:08:22.638Z,3.13
2023-12-29T11:10:51.963Z,3.55
2023-12-29T11:13:23.371Z,3.53
2023-12-29T11:15:53.821Z,3.53
2023-12-29T11:18:24.110Z,3.40
2023-12-29T11:20:53.693Z,3.45
2023-12-29T11:23:22.409Z,6.05
2023-12-29T11:25:54.506Z,3.83
2023-12-29T11:28:22.698Z,4.85
2023-12-29T11:30:51.801Z,3.53
2023-12-29T11:33:28.123Z,2.80
2023-12-29T11:36:03.701Z,3.00
2023-12-29T11:38:44.879Z,2.38
2023-12-29T11:41:23.130Z,4.40
2023-12-29T11:43:58.456Z,3.50
2023-12-29T11:46:37.518Z,3.97
2023-12-29T11:49:08.154Z,3.30
2023-12-29T11:51:37.665Z,4.35
2023-12-29T11:54:06.741Z,4.20
2023-12-29T11:56:39.691Z,3.78
2023-12-29T11:59:15.516Z,2.75
2023-12-29T12:01:47.669Z,2.45
2023-12-29T12:04:38.668Z,3.10
2023-12-29T12:07:11.459Z,3.67
2023-12-29T12:09:39.696Z,6.07
2023-12-29T12:12:07.876Z,6.53
2023-12-29T12:14:59.969Z,3.10
2023-12-29T12:17:32.090Z,2.65
2023-12-29T12:20:04.236Z,3.60
2023-12-29T12:22:35.783Z,3.53
2023-12-29T12:25:06.714Z,3.78
2023-12-29T12:27:39.106Z,4.53
2023-12-29T12:30:08.355Z,3.85
2023-12-29T12:32:36.969Z,3.53
2023-12-29T12:35:16.905Z,5.13
2023-12-29T12:37:46.131Z,4.07
2023-12-29T12:40:26.842Z,4.30
2023-12-29T12:42:55.455Z,5.95
2023-12-29T12:45:27.452Z,5.22
2023-12-29T12:48:02.259Z,4.40
2023-12-29T12:50:32.792Z,3.80
2023-12-29T12:53:03.074Z,4.78
2023-12-29T12:55:38.887Z,5.68
2023-12-29T12:58:07.181Z,4.03
2023-12-29T13:00:35.692Z,5.38
2023-12-29T13:03:04.944Z,3.53
2023-12-29T13:05:36.351Z,2.90
2023-12-29T13:08:07.274Z,4.03
2023-12-29T13:10:35.662Z,4.10
2023-12-29T13:13:04.419Z,5.47
2023-12-29T13:15:32.651Z,3.92
2023-12-29T13:18:01.333Z,3.78
2023-12-29T13:20:29.790Z,4.18
2023-12-29T13:23:00.262Z,3.33
2023-12-29T13:25:29.374Z,3.33
2023-12-29T13:27:58.498Z,3.20
2023-12-29T13:30:26.973Z,2.88
2023-12-29T13:32:55.770Z,4.18
2023-12-29T13:35:30.197Z,4.47
2023-12-29T13:38:09.680Z,3.70
2023-12-29T13:40:44.188Z,5.38
2023-12-29T13:43:16.029Z,5.82
2023-12-29T13:45:44.594Z,8.05
2023-12-29T13:48:15.424Z,6.60
2023-12-29T13:50:46.688Z,6.90
2023-12-29T13:53:21.599Z,6.63
2023-12-29T13:55:50.136Z,6.78
2023-12-29T13:58:19.160Z,5.97
2023-12-29T14:00:55.067Z,5.40
2023-12-29T14:03:29.086Z,6.47
2023-12-29T14:06:00.960Z,7.43
2023-12-29T14:08:34.214Z,5.72
2023-12-29T14:11:02.146Z,5.40
2023-12-29T14:13:30.735Z,6.03
2023-12-29T14:16:04.744Z,6.28
2023-12-29T14:18:56.245Z,6.97
2023-12-29T14:21:27.584Z,5.68
2023-12-29T14:24:08.916Z,5.50
2023-12-29T14:26:37.761Z,7.75
2023-12-29T14:29:08.323Z,6.18
2023-12-29T14:31:37.574Z,6.72
2023-12-29T14:34:06.227Z,5.07
2023-12-29T14:36:34.356Z,8.07
2023-12-29T14:39:07.474Z,7.65
2023-12-29T14:41:35.431Z,10.48
2023-12-29T14:44:05.043Z,7.07
2023-12-29T14:46:33.098Z,5.90
2023-12-29T14:49:01.733Z,8.23
2023-12-29T14:51:30.174Z,7.20
2023-12-29T14:53:58.530Z,5.13
2023-12-29T14:56:27.769Z,7.88
2023-12-29T14:58:56.069Z,6.03
2023-12-29T15:01:24.942Z,7.45
2023-12-29T15:03:53.343Z,6.85
2023-12-29T15:06:21.171Z,9.15
2023-12-29T15:08:49.920Z,9.77
2023-12-29T15:11:17.791Z,9.20
2023-12-29T15:13:48.075Z,11.85
2023-12-29T15:16:15.962Z,9.00
2023-12-29T15:18:44.328Z,12.13
2023-12-29T15:21:12.611Z,10.10
2023-12-29T15:23:41.273Z,9.27
2023-12-29T15:26:08.935Z,12.20
2023-12-29T15:28:37.256Z,8.93
2023-12-29T15:31:07.374Z,7.63
2023-12-29T15:33:36.047Z,10.90
2023-12-29T15:36:04.657Z,7.40
2023-12-29T15:38:33.454Z,5.72
2023-12-29T15:41:07.132Z,6.05
2023-12-29T15:43:35.925Z,7.70
2023-12-29T15:46:13.170Z,6.38
2023-12-29T15:48:43.528Z,9.00
2023-12-29T15:51:11.817Z,8.10
2023-12-29T15:53:40.965Z,7.43
2023-12-29T15:56:09.263Z,9.02
2023-12-29T15:58:37.437Z,7.55
2023-12-29T16:01:05.831Z,10.88
2023-12-29T16:03:35.213Z,10.25
2023-12-29T16:06:05.102Z,12.75
2023-12-29T16:08:33.937Z,7.22
2023-12-29T16:11:01.972Z,5.93
2023-12-29T16:13:30.048Z,4.70
2023-12-29T16:15:57.747Z,6.35
2023-12-29T16:18:26.003Z,6.18
2023-12-29T16:20:54.568Z,5.40
2023-12-29T16:23:24.521Z,4.28
2023-12-29T16:25:52.316Z,4.45
2023-12-29T16:28:20.624Z,6.68
2023-12-29T16:30:48.298Z,6.40
2023-12-29T16:33:16.726Z,5.13
2023-12-29T16:35:44.422Z,6.00
2023-12-29T16:38:12.917Z,5.10
2023-12-29T16:40:45.468Z,3.72
2023-12-29T16:43:13.716Z,7.78
2023-12-29T16:45:41.495Z,6.72
2023-12-29T16:48:09.518Z,7.55
2023-12-29T16:50:37.333Z,6.55
2023-12-29T16:53:05.656Z,9.80
2023-12-29T16:55:33.301Z,8.15
2023-12-29T16:58:02.891Z,6.80
2023-12-29T17:00:30.900Z,5.65
2023-12-29T17:02:59.558Z,4.80
2023-12-29T17:05:27.669Z,8.57
2023-12-29T17:07:57.032Z,6.53
2023-12-29T17:10:25.193Z,7.25
2023-12-29T17:12:53.928Z,6.38
2023-12-29T17:15:23.295Z,5.63
2023-12-29T17:17:51.771Z,6.20
2023-12-29T17:20:19.741Z,5.82
2023-12-29T17:22:48.746Z,5.63
2023-12-29T17:25:16.682Z,5.07
2023-12-29T17:27:47.212Z,5.32
2023-12-29T17:30:15.254Z,6.07
2023-12-29T17:32:45.260Z,4.43
2023-12-29T17:35:12.920Z,5.20
2023-12-29T17:37:41.088Z,5.60
2023-12-29T17:40:10.271Z,5.10
2023-12-29T17:42:38.533Z,5.97
2023-12-29T17:45:07.069Z,6.68
2023-12-29T17:47:35.027Z,9.63
2023-12-29T17:50:05.473Z,10.32
2023-12-29T17:52:33.719Z,7.90
2023-12-29T17:55:01.519Z,6.82
2023-12-29T17:57:29.932Z,7.43
2023-12-29T17:59:57.812Z,8.00
2023-12-29T18:02:30.432Z,9.05
2023-12-29T18:04:58.434Z,6.45
2023-12-29T18:07:28.024Z,7.95
2023-12-29T18:09:56.405Z,6.70
2023-12-29T18:12:25.618Z,8.85
2023-12-29T18:14:53.684Z,7.38
2023-12-29T18:17:22.151Z,5.90
2023-12-29T18:19:49.895Z,6.18
2023-12-29T18:22:18.952Z,6.32
2023-12-29T18:24:48.520Z,6.70
2023-12-29T18:27:18.985Z,6.68
2023-12-29T18:29:47.492Z,6.78
2023-12-29T18:32:20.212Z,8.30
2023-12-29T18:34:50.723Z,6.15
2023-12-29T18:37:19.604Z,6.28
2023-12-29T18:39:49.367Z,7.15
2023-12-29T18:42:17.989Z,5.57
2023-12-29T18:44:45.837Z,6.70
2023-12-29T18:47:14.100Z,5.30
2023-12-29T18:49:42.201Z,5.15
2023-12-29T18:52:12.737Z,5.38
2023-12-29T18:54:40.866Z,3.92
2023-12-29T18:57:10.803Z,4.05
2023-12-29T18:59:38.734Z,4.03
2023-12-29T19:02:07.969Z,4.70
2023-12-29T19:04:35.566Z,4.88
2023-12-29T19:07:03.933Z,5.47
2023-12-29T19:09:31.696Z,6.93
2023-12-29T19:12:00.573Z,5.72
2023-12-29T19:14:29.787Z,5.28
2023-12-29T19:16:57.876Z,7.22
2023-12-29T19:19:25.638Z,4.38
2023-12-29T19:21:54.312Z,4.53
2023-12-29T19:24:22.210Z,5.00
2023-12-29T19:26:51.556Z,5.78
2023-12-29T19:29:20.060Z,5.82
2023-12-29T19:31:49.833Z,5.80
2023-12-29T19:34:17.660Z,5.00
2023-12-29T19:36:46.226Z,5.68
2023-12-29T19:39:13.941Z,6.03
2023-12-29T19:41:42.222Z,5.38
2023-12-29T19:44:10.289Z,3.97
2023-12-29T19:46:42.092Z,6.38
2023-12-29T19:49:11.388Z,5.40
2023-12-29T19:51:39.957Z,4.82
2023-12-29T19:54:07.882Z,6.05
2023-12-29T19:56:37.025Z,5.40
2023-12-29T19:59:04.665Z,4.47
2023-12-29T20:01:38.613Z,6.50
2023-12-29T20:04:13.676Z,6.18
2023-12-29T20:06:42.124Z,6.55
2023-12-29T20:09:10.033Z,6.95
2023-12-29T20:11:39.915Z,6.07
2023-12-29T20:14:08.149Z,6.03
2023-12-29T20:16:36.775Z,6.40
2023-12-29T20:19:07.582Z,7.68
2023-12-29T20:21:37.415Z,6.65
2023-12-29T20:24:07.199Z,9.43
2023-12-29T20:26:37.374Z,7.30
2023-12-29T20:29:05.301Z,6.88
2023-12-29T20:31:37.149Z,8.43
2023-12-29T20:34:05.367Z,7.75
2023-12-29T20:36:34.075Z,4.75
2023-12-29T20:39:03.817Z,4.55
2023-12-29T20:41:32.605Z,7.45
2023-12-29T20:44:00.719Z,5.72
2023-12-29T20:46:29.292Z,4.70
2023-12-29T20:48:57.240Z,6.47
2023-12-29T20:51:25.577Z,5.40
2023-12-29T20:53:53.546Z,5.35
2023-12-29T20:56:23.411Z,4.10
2023-12-29T20:58:54.339Z,4.50
2023-12-29T21:01:25.020Z,5.13
2023-12-29T21:03:53.570Z,4.97
2023-12-29T21:06:22.014Z,4.00
2023-12-29T21:08:50.521Z,4.78
2023-12-29T21:11:20.209Z,5.20
2023-12-29T21:13:49.592Z,6.40
2023-12-29T21:16:20.190Z,4.13
2023-12-29T21:18:49.053Z,3.78
2023-12-29T21:21:17.703Z,4.35
2023-12-29T21:23:45.537Z,3.80
2023-12-29T21:26:21.344Z,4.28
2023-12-29T21:28:50.482Z,4.25
2023-12-29T21:31:20.564Z,4.55
2023-12-29T21:33:48.886Z,3.85
2023-12-29T21:36:24.257Z,3.33
2023-12-29T21:38:52.416Z,3.30
2023-12-29T21:41:21.599Z,3.85
2023-12-29T21:43:51.335Z,3.78
2023-12-29T21:46:19.707Z,3.50
2023-12-29T21:48:47.509Z,5.35
2023-12-29T21:51:15.705Z,4.30
2023-12-29T21:53:43.425Z,5.10
2023-12-29T21:56:11.601Z,4.22
2023-12-29T21:58:39.838Z,4.47
2023-12-29T22:01:36.036Z,4.20
2023-12-29T22:04:05.713Z,3.80
2023-12-29T22:06:37.186Z,4.65
2023-12-29T22:09:05.052Z,3.08
2023-12-29T22:11:33.448Z,4.70
2023-12-29T22:14:01.663Z,4.13
2023-12-29T22:16:30.450Z,5.22
2023-12-29T22:19:00.313Z,4.35
2023-12-29T22:21:28.773Z,5.40
2023-12-29T22:23:57.193Z,5.18
2023-12-29T22:26:28.029Z,5.18
2023-12-29T22:28:56.178Z,4.70
2023-12-29T22:31:24.364Z,6.00
2023-12-29T22:33:52.366Z,4.30
2023-12-29T22:36:22.873Z,4.22
2023-12-29T22:38:50.626Z,4.15
2023-12-29T22:41:23.746Z,5.28
2023-12-29T22:46:23.493Z,3.50
2023-12-29T22:48:53.406Z,3.78
2023-12-29T22:51:23.598Z,5.82
2023-12-29T22:53:51.431Z,4.10
2023-12-29T22:56:22.589Z,6.40
2023-12-29T22:58:50.700Z,4.20
2023-12-29T23:01:19.639Z,4.32
2023-12-29T23:03:47.755Z,4.72
2023-12-29T23:06:16.530Z,4.47
2023-12-29T23:08:45.774Z,4.03
2023-12-29T23:11:14.400Z,4.57
2023-12-29T23:13:42.232Z,3.92
2023-12-29T23:16:11.346Z,3.80
2023-12-29T23:18:40.166Z,4.63
2023-12-29T23:21:12.653Z,4.63
2023-12-29T23:23:40.232Z,4.25
2023-12-29T23:26:10.258Z,3.38
2023-12-29T23:28:38.318Z,3.70
2023-12-29T23:31:08.879Z,4.53
2023-12-29T23:33:36.969Z,3.92
2023-12-29T23:36:06.538Z,3.33
2023-12-29T23:38:34.380Z,3.40
2023-12-29T23:41:02.793Z,3.83
2023-12-29T23:43:32.201Z,3.35
2023-12-29T23:46:00.473Z,4.28
2023-12-29T23:48:28.424Z,4.60
2023-12-29T23:50:56.784Z,3.20
2023-12-29T23:53:24.923Z,3.28
2023-12-29T23:55:53.014Z,2.67
2023-12-29T23:58:24.409Z,3.90
